createdAt,value
2023-03-26T00:02:30.990Z,85.48
2023-03-26T00:05:34.234Z,85.21
2023-03-26T00:08:38.370Z,85.43
2023-03-26T00:11:42.497Z,85.63
2023-03-26T00:14:45.147Z,85.81
2023-03-26T00:17:48.101Z,86.07
2023-03-26T00:20:52.733Z,86.27
2023-03-26T00:24:04.857Z,86.08
2023-03-26T00:27:08.847Z,85.83
2023-03-26T00:30:12.525Z,85.88
2023-03-26T00:33:17.499Z,86.44
2023-03-26T00:36:20.675Z,86.81
2023-03-26T00:39:24.133Z,86.31
2023-03-26T00:42:27.601Z,86.06
2023-03-26T00:45:30.450Z,86.31
2023-03-26T00:48:44.672Z,85.17
2023-03-26T00:51:48.240Z,84.95
2023-03-26T00:54:52.330Z,84.49
2023-03-26T00:57:55.503Z,84.09
2023-03-26T01:01:01.016Z,83.96
2023-03-26T01:04:27.509Z,83.61
2023-03-26T01:07:31.579Z,83.56
2023-03-26T01:10:38.723Z,83.93
2023-03-26T01:13:51.290Z,83.52
2023-03-26T01:16:56.037Z,83.53
2023-03-26T01:20:13.215Z,83.66
2023-03-26T01:23:22.744Z,83.89
2023-03-26T01:26:43.095Z,84.08
2023-03-26T01:29:54.273Z,84.28
2023-03-26T01:33:21.558Z,83.97
2023-03-26T01:36:34.992Z,84.29
2023-03-26T01:39:53.925Z,84.25
2023-03-26T01:43:24.699Z,84.79
2023-03-26T01:46:27.874Z,84.66
2023-03-26T01:49:31.718Z,84.69
2023-03-26T01:52:35.054Z,85.03
2023-03-26T01:55:49.679Z,85.07
2023-03-26T01:58:59.801Z,85.25
2023-03-26T02:02:26.202Z,85.80
2023-03-26T02:05:34.234Z,85.69
2023-03-26T02:08:42.860Z,85.57
2023-03-26T02:11:46.852Z,85.47
2023-03-26T02:14:49.961Z,85.34
2023-03-26T02:17:54.155Z,85.44
2023-03-26T02:20:57.237Z,85.59
2023-03-26T02:24:03.350Z,84.98
2023-03-26T02:27:07.947Z,85.30
2023-03-26T02:30:14.993Z,85.44
2023-03-26T02:33:18.193Z,85.21
2023-03-26T02:36:25.120Z,85.07
2023-03-26T02:39:30.188Z,85.51
2023-03-26T02:42:33.333Z,85.09
2023-03-26T02:45:36.409Z,84.60
2023-03-26T02:48:41.574Z,84.47
2023-03-26T02:51:44.995Z,84.77
2023-03-26T02:54:48.195Z,84.56
2023-03-26T02:57:51.624Z,84.91
2023-03-26T03:00:57.717Z,85.11
2023-03-26T03:04:04.280Z,85.46
2023-03-26T03:07:07.785Z,85.73
2023-03-26T03:10:22.081Z,85.70
2023-03-26T03:13:27.690Z,86.25
2023-03-26T03:16:30.750Z,86.45
2023-03-26T03:19:33.689Z,86.58
2023-03-26T03:22:37.475Z,86.99
2023-03-26T03:25:41.203Z,87.03
2023-03-26T03:28:45.305Z,87.47
2023-03-26T03:31:49.353Z,87.38
2023-03-26T03:34:53.290Z,87.59
2023-03-26T03:37:57.610Z,87.98
2023-03-26T03:41:01.861Z,87.87
2023-03-26T03:44:04.914Z,88.29
2023-03-26T03:47:10.468Z,88.32
2023-03-26T03:50:13.316Z,88.43
2023-03-26T03:53:18.527Z,88.77
2023-03-26T03:56:24.231Z,88.89
2023-03-26T03:59:29.354Z,89.41
2023-03-26T04:02:35.063Z,89.25
2023-03-26T04:05:38.721Z,89.16
2023-03-26T04:08:41.520Z,89.29
2023-03-26T04:11:45.245Z,89.48
2023-03-26T04:14:48.848Z,89.61
2023-03-26T04:17:52.181Z,89.77
2023-03-26T04:20:55.873Z,89.97
2023-03-26T04:24:02.232Z,90.19
2023-03-26T04:27:12.701Z,90.76
2023-03-26T04:30:20.624Z,90.97
2023-03-26T04:33:25.004Z,90.78
2023-03-26T04:36:32.219Z,91.05
2023-03-26T04:39:36.287Z,90.80
2023-03-26T04:42:46.989Z,91.36
2023-03-26T04:45:50.329Z,91.26
2023-03-26T04:48:55.089Z,91.75
2023-03-26T04:51:57.916Z,92.23
2023-03-26T04:55:18.617Z,92.40
2023-03-26T04:58:32.823Z,92.61
2023-03-26T05:01:37.945Z,92.40
2023-03-26T05:04:43.810Z,91.97
2023-03-26T05:07:46.949Z,91.18
2023-03-26T05:10:50.321Z,90.59
2023-03-26T05:13:54.216Z,90.29
2023-03-26T05:16:57.069Z,91.01
2023-03-26T05:20:01.203Z,91.30
2023-03-26T05:23:04.483Z,90.95
2023-03-26T05:26:09.598Z,90.99
2023-03-26T05:29:17.784Z,90.60
2023-03-26T05:32:20.961Z,90.42
2023-03-26T05:35:25.750Z,89.53
2023-03-26T05:38:30.045Z,89.30
2023-03-26T05:41:32.754Z,89.64
2023-03-26T05:44:35.744Z,89.78
2023-03-26T05:47:39.221Z,89.31
2023-03-26T05:50:42.272Z,89.40
2023-03-26T05:53:45.342Z,88.95
2023-03-26T05:56:50.561Z,88.59
2023-03-26T06:00:05.970Z,88.73
2023-03-26T06:03:19.195Z,88.06
2023-03-26T06:06:23.925Z,87.09
2023-03-26T06:09:29.569Z,87.15
2023-03-26T06:12:32.749Z,86.72
2023-03-26T06:15:35.286Z,86.09
2023-03-26T06:18:39.324Z,86.19
2023-03-26T06:21:43.526Z,86.20
2023-03-26T06:24:46.446Z,85.04
2023-03-26T06:27:50.884Z,84.38
2023-03-26T06:30:54.991Z,84.44
2023-03-26T06:33:57.984Z,83.24
2023-03-26T06:37:00.973Z,82.74
2023-03-26T06:40:04.792Z,81.91
2023-03-26T06:43:10.821Z,81.66
2023-03-26T06:46:14.659Z,80.29
2023-03-26T06:49:18.825Z,79.23
2023-03-26T06:52:22.630Z,78.78
2023-03-26T06:55:25.969Z,77.55
2023-03-26T06:58:29.839Z,75.60
2023-03-26T07:01:40.900Z,74.83
2023-03-26T07:04:58.731Z,73.29
2023-03-26T07:08:16.093Z,71.72
2023-03-26T07:11:25.462Z,71.40
2023-03-26T07:14:30.589Z,70.70
2023-03-26T07:17:33.451Z,70.85
2023-03-26T07:20:36.646Z,71.20
2023-03-26T07:23:39.804Z,70.96
2023-03-26T07:27:07.748Z,70.26
2023-03-26T07:30:14.962Z,68.80
2023-03-26T07:33:43.208Z,68.02
2023-03-26T07:36:51.952Z,66.68
2023-03-26T07:40:03.576Z,66.30
2023-03-26T07:43:41.882Z,63.57
2023-03-26T07:46:47.840Z,63.28
2023-03-26T07:49:51.792Z,61.86
2023-03-26T07:52:55.675Z,60.84
2023-03-26T07:56:08.110Z,59.03
2023-03-26T07:59:43.931Z,59.84
2023-03-26T08:02:49.505Z,56.81
2023-03-26T08:06:07.031Z,54.64
2023-03-26T08:09:25.418Z,56.20
2023-03-26T08:12:38.908Z,56.11
2023-03-26T08:16:05.598Z,57.04
2023-03-26T08:19:49.268Z,58.09
2023-03-26T08:23:02.195Z,58.82
2023-03-26T08:26:19.798Z,58.77
2023-03-26T08:29:45.328Z,59.56
2023-03-26T08:32:59.803Z,59.73
2023-03-26T08:36:02.672Z,59.97
2023-03-26T08:39:05.973Z,60.18
2023-03-26T08:42:46.148Z,59.07
2023-03-26T08:46:10.414Z,59.78
2023-03-26T08:49:31.886Z,59.89
2023-03-26T08:53:03.292Z,58.41
2023-03-26T08:56:16.522Z,59.47
2023-03-26T08:59:53.534Z,58.20
2023-03-26T09:03:00.503Z,58.35
2023-03-26T09:06:09.468Z,59.22
2023-03-26T09:09:33.586Z,59.14
2023-03-26T09:12:59.326Z,60.83
2023-03-26T09:16:43.245Z,60.50
2023-03-26T09:19:59.225Z,59.93
2023-03-26T09:23:26.378Z,59.48
2023-03-26T09:26:38.304Z,59.30
2023-03-26T09:30:24.181Z,57.85
2023-03-26T09:33:59.430Z,56.70
2023-03-26T09:37:17.534Z,54.13
2023-03-26T09:40:23.057Z,53.00
2023-03-26T09:43:44.487Z,51.92
2023-03-26T09:47:19.794Z,51.45
2023-03-26T09:51:05.972Z,50.87
2023-03-26T09:54:21.107Z,51.82
2023-03-26T09:57:29.868Z,53.09
2023-03-26T10:00:48.611Z,52.96
2023-03-26T10:04:26.896Z,53.40
2023-03-26T10:07:47.953Z,52.74
2023-03-26T10:10:58.438Z,52.33
2023-03-26T10:14:16.212Z,50.53
2023-03-26T10:18:00.973Z,49.54
2023-03-26T10:21:38.013Z,46.03
2023-03-26T10:24:59.070Z,46.14
2023-03-26T10:28:13.757Z,43.45
2023-03-26T10:31:19.363Z,42.90
2023-03-26T10:34:54.715Z,41.07
2023-03-26T10:38:23.313Z,41.22
2023-03-26T10:41:38.098Z,40.16
2023-03-26T10:45:18.206Z,39.35
2023-03-26T10:48:43.135Z,37.39
2023-03-26T10:51:50.438Z,37.28
2023-03-26T10:54:59.836Z,37.03
2023-03-26T10:58:25.679Z,37.04
2023-03-26T11:01:50.036Z,37.30
2023-03-26T11:05:13.824Z,37.82
2023-03-26T11:08:31.647Z,40.11
2023-03-26T11:11:45.299Z,39.89
2023-03-26T11:15:03.760Z,38.65
2023-03-26T11:18:46.009Z,38.95
2023-03-26T11:21:51.446Z,40.54
2023-03-26T11:24:56.482Z,41.08
2023-03-26T11:28:06.261Z,38.54
2023-03-26T11:31:32.288Z,39.82
2023-03-26T11:34:58.417Z,37.75
2023-03-26T11:38:07.546Z,37.98
2023-03-26T11:41:22.538Z,37.50
2023-03-26T11:44:29.863Z,36.40
2023-03-26T11:47:42.688Z,35.94
2023-03-26T11:50:52.799Z,34.95
2023-03-26T11:53:57.893Z,34.68
2023-03-26T11:57:06.968Z,37.03
2023-03-26T12:00:18.231Z,39.15
2023-03-26T12:03:21.609Z,40.69
2023-03-26T12:06:30.085Z,39.25
2023-03-26T12:09:33.013Z,36.30
2023-03-26T12:12:41.709Z,35.42
2023-03-26T12:15:44.634Z,34.94
2023-03-26T12:19:08.240Z,33.89
2023-03-26T12:22:32.930Z,35.74
2023-03-26T12:25:39.193Z,38.08
2023-03-26T12:28:47.744Z,38.22
2023-03-26T12:32:04.784Z,39.58
2023-03-26T12:35:18.732Z,39.27
2023-03-26T12:38:35.442Z,38.63
2023-03-26T12:43:40.480Z,38.23
2023-03-26T12:45:04.083Z,38.41
2023-03-26T12:48:07.480Z,39.34
2023-03-26T12:51:38.935Z,40.77
2023-03-26T12:55:00.225Z,40.55
2023-03-26T12:58:41.151Z,40.43
2023-03-26T13:01:59.655Z,41.15
2023-03-26T13:05:40.457Z,38.45
2023-03-26T13:08:49.378Z,37.01
2023-03-26T13:12:43.033Z,37.65
2023-03-26T13:15:52.557Z,39.59
2023-03-26T13:19:05.086Z,39.37
2023-03-26T13:22:12.411Z,37.08
2023-03-26T13:25:35.324Z,35.22
2023-03-26T13:28:53.674Z,34.56
2023-03-26T13:32:11.925Z,34.55
2023-03-26T13:35:39.972Z,33.20
2023-03-26T13:39:03.544Z,33.90
2023-03-26T13:42:26.675Z,32.87
2023-03-26T13:45:38.138Z,33.12
2023-03-26T13:49:01.837Z,32.40
2023-03-26T13:52:19.240Z,32.96
2023-03-26T13:55:28.276Z,33.65
2023-03-26T13:58:50.778Z,33.08
2023-03-26T14:01:58.223Z,33.68
2023-03-26T14:05:10.167Z,33.75
2023-03-26T14:08:20.841Z,34.65
2023-03-26T14:11:43.381Z,35.25
2023-03-26T14:14:52.379Z,35.02
2023-03-26T14:18:10.776Z,35.46
2023-03-26T14:21:49.356Z,33.61
2023-03-26T14:25:27.683Z,34.47
2023-03-26T14:28:54.877Z,35.12
2023-03-26T14:32:04.255Z,34.90
2023-03-26T14:35:14.447Z,33.37
2023-03-26T14:38:49.357Z,33.98
2023-03-26T14:41:54.121Z,34.32
2023-03-26T14:45:09.722Z,34.28
2023-03-26T14:48:32.060Z,34.70
2023-03-26T14:51:56.737Z,35.94
2023-03-26T14:55:01.800Z,36.01
2023-03-26T14:58:23.244Z,35.79
2023-03-26T15:01:27.631Z,36.01
2023-03-26T15:04:53.935Z,36.87
2023-03-26T15:08:04.982Z,36.45
2023-03-26T15:11:45.592Z,36.03
2023-03-26T15:14:54.089Z,36.38
2023-03-26T15:18:35.100Z,36.78
2023-03-26T15:21:51.172Z,36.07
2023-03-26T15:25:16.115Z,37.23
2023-03-26T15:28:59.906Z,38.29
2023-03-26T15:32:33.618Z,38.43
2023-03-26T15:35:42.141Z,38.48
2023-03-26T15:39:18.427Z,38.53
2023-03-26T15:42:49.481Z,38.84
2023-03-26T15:46:22.372Z,38.96
2023-03-26T15:49:40.170Z,37.45
2023-03-26T15:52:49.051Z,38.24
2023-03-26T15:56:16.213Z,37.90
2023-03-26T15:59:29.494Z,38.38
2023-03-26T16:02:36.411Z,38.32
2023-03-26T16:06:14.151Z,38.94
2023-03-26T16:09:27.384Z,39.50
2023-03-26T16:12:37.436Z,40.14
2023-03-26T16:15:42.803Z,40.27
2023-03-26T16:18:51.035Z,41.02
2023-03-26T16:22:04.381Z,40.78
2023-03-26T16:25:27.269Z,40.84
2023-03-26T16:28:33.601Z,41.57
2023-03-26T16:31:39.472Z,42.45
2023-03-26T16:34:52.986Z,43.19
2023-03-26T16:38:18.502Z,44.07
2023-03-26T16:41:26.763Z,44.99
2023-03-26T16:44:44.130Z,45.29
2023-03-26T16:47:54.276Z,45.91
2023-03-26T16:51:06.282Z,46.41
2023-03-26T16:54:33.448Z,46.67
2023-03-26T16:57:42.344Z,47.00
2023-03-26T17:01:07.634Z,47.15
2023-03-26T17:04:23.577Z,47.26
2023-03-26T17:07:39.444Z,46.77
2023-03-26T17:11:36.231Z,46.73
2023-03-26T17:15:18.618Z,46.49
2023-03-26T17:18:47.040Z,46.49
2023-03-26T17:22:19.114Z,46.16
2023-03-26T17:25:35.727Z,46.08
2023-03-26T17:29:06.863Z,46.32
2023-03-26T17:32:12.840Z,46.56
2023-03-26T17:35:16.183Z,46.74
2023-03-26T17:38:25.473Z,46.95
2023-03-26T17:41:55.471Z,47.24
2023-03-26T17:45:01.386Z,47.45
2023-03-26T17:48:10.795Z,47.24
2023-03-26T17:51:22.222Z,47.29
2023-03-26T17:54:44.433Z,47.46
2023-03-26T17:57:51.993Z,47.57
2023-03-26T18:01:08.257Z,47.73
2023-03-26T18:04:15.789Z,48.00
2023-03-26T18:07:52.299Z,48.11
2023-03-26T18:11:17.079Z,48.27
2023-03-26T18:14:32.006Z,48.20
2023-03-26T18:17:46.307Z,48.31
2023-03-26T18:20:51.025Z,48.52
2023-03-26T18:23:53.985Z,48.50
2023-03-26T18:27:06.381Z,48.72
2023-03-26T18:30:22.928Z,48.62
2023-03-26T18:33:26.042Z,48.93
2023-03-26T18:36:31.022Z,49.02
2023-03-26T18:39:33.501Z,49.13
2023-03-26T18:42:37.433Z,49.06
2023-03-26T18:45:41.405Z,49.19
2023-03-26T18:48:46.336Z,49.61
2023-03-26T18:51:57.489Z,49.74
2023-03-26T18:55:02.164Z,50.10
2023-03-26T18:58:22.225Z,50.19
2023-03-26T19:01:30.697Z,50.11
2023-03-26T19:04:34.985Z,49.96
2023-03-26T19:07:39.199Z,49.78
2023-03-26T19:10:42.833Z,50.10
2023-03-26T19:13:51.142Z,50.64
2023-03-26T19:16:59.343Z,50.88
2023-03-26T19:20:04.294Z,51.27
2023-03-26T19:23:09.142Z,51.35
2023-03-26T19:26:12.560Z,51.46
2023-03-26T19:29:19.726Z,51.48
2023-03-26T19:32:32.484Z,51.54
2023-03-26T19:35:39.636Z,51.78
2023-03-26T19:38:52.056Z,52.38
2023-03-26T19:41:54.906Z,52.50
2023-03-26T19:45:05.701Z,53.10
2023-03-26T19:48:15.533Z,52.08
2023-03-26T19:51:30.892Z,51.57
2023-03-26T19:55:00.132Z,51.41
2023-03-26T19:58:04.331Z,50.97
2023-03-26T20:01:28.665Z,51.26
2023-03-26T20:04:32.988Z,51.69
2023-03-26T20:07:39.397Z,52.26
2023-03-26T20:10:43.250Z,52.27
2023-03-26T20:13:46.458Z,51.37
2023-03-26T20:16:49.784Z,52.11
2023-03-26T20:19:54.306Z,52.13
2023-03-26T20:22:57.634Z,52.07
2023-03-26T20:26:01.271Z,52.43
2023-03-26T20:29:04.838Z,52.11
2023-03-26T20:32:23.671Z,51.85
2023-03-26T20:35:35.774Z,52.25
2023-03-26T20:38:43.395Z,52.36
2023-03-26T20:41:48.729Z,52.76
2023-03-26T20:44:51.370Z,52.65
2023-03-26T20:47:54.716Z,52.82
2023-03-26T20:50:57.417Z,52.84
2023-03-26T20:54:00.691Z,52.86
2023-03-26T20:57:03.440Z,53.22
2023-03-26T21:00:22.418Z,54.06
2023-03-26T21:03:25.376Z,54.19
2023-03-26T21:06:28.234Z,53.64
2023-03-26T21:09:35.326Z,53.69
2023-03-26T21:12:47.871Z,54.19
2023-03-26T21:15:50.811Z,53.91
2023-03-26T21:18:54.305Z,54.50
2023-03-26T21:22:15.620Z,54.77
2023-03-26T21:25:24.339Z,54.85
2023-03-26T21:28:42.221Z,55.45
2023-03-26T21:31:46.675Z,55.58
2023-03-26T21:34:58.491Z,55.70
2023-03-26T21:38:04.748Z,56.00
2023-03-26T21:41:07.738Z,56.11
2023-03-26T21:44:10.917Z,56.53
2023-03-26T21:47:14.114Z,56.21
2023-03-26T21:50:21.716Z,56.23
2023-03-26T21:53:24.542Z,56.58
2023-03-26T21:56:34.764Z,56.62
2023-03-26T22:00:18.194Z,57.19
2023-03-26T22:03:21.210Z,57.79
2023-03-26T22:06:32.382Z,57.74
2023-03-26T22:09:36.448Z,57.94
2023-03-26T22:12:39.616Z,59.16
2023-03-26T22:15:43.362Z,61.59
2023-03-26T22:18:45.955Z,65.38
2023-03-26T22:21:50.978Z,68.30
2023-03-26T22:24:53.732Z,70.71
2023-03-26T22:27:57.569Z,72.50
2023-03-26T22:31:07.205Z,72.68
2023-03-26T22:34:10.162Z,73.60
2023-03-26T22:37:13.551Z,74.33
2023-03-26T22:40:17.970Z,73.25
2023-03-26T22:43:20.553Z,75.27
2023-03-26T22:46:24.219Z,76.01
2023-03-26T22:49:27.457Z,77.39
2023-03-26T22:52:30.751Z,79.34
2023-03-26T22:55:33.581Z,82.10
2023-03-26T22:58:38.004Z,84.48
2023-03-26T23:01:40.835Z,86.62
2023-03-26T23:04:44.322Z,89.70
2023-03-26T23:07:47.354Z,92.79
2023-03-26T23:10:52.140Z,94.47
2023-03-26T23:13:54.701Z,96.82
2023-03-26T23:16:57.600Z,99.78
2023-03-26T23:20:00.710Z,99.74
2023-03-26T23:23:03.706Z,100.00
2023-03-26T23:26:06.973Z,100.00
2023-03-26T23:29:10.048Z,100.00
2023-03-26T23:32:23.368Z,100.00
2023-03-26T23:35:27.704Z,100.00
2023-03-26T23:38:43.083Z,100.00
2023-03-26T23:41:46.588Z,100.00
2023-03-26T23:44:49.387Z,100.00
2023-03-26T23:47:52.441Z,100.00
2023-03-26T23:51:03.481Z,100.00
2023-03-26T23:54:08.704Z,100.00
2023-03-26T23:57:11.485Z,100.00
